createdAt,value
2023-04-27T00:01:41.445Z,100.00
2023-04-27T00:04:08.418Z,100.00
2023-04-27T00:06:35.183Z,100.00
2023-04-27T00:09:01.893Z,100.00
2023-04-27T00:11:28.616Z,100.00
2023-04-27T00:13:56.230Z,100.00
2023-04-27T00:16:23.226Z,100.00
2023-04-27T00:18:50.004Z,100.00
2023-04-27T00:21:16.703Z,100.00
2023-04-27T00:23:43.364Z,100.00
2023-04-27T00:26:09.991Z,100.00
2023-04-27T00:28:36.622Z,100.00
2023-04-27T00:31:04.708Z,100.00
2023-04-27T00:33:31.406Z,100.00
2023-04-27T00:36:01.826Z,100.00
2023-04-27T00:38:29.383Z,100.00
2023-04-27T00:41:07.195Z,100.00
2023-04-27T00:43:41.461Z,100.00
2023-04-27T00:46:09.291Z,100.00
2023-04-27T00:48:36.600Z,100.00
2023-04-27T00:51:03.759Z,100.00
2023-04-27T00:53:31.972Z,100.00
2023-04-27T00:55:59.027Z,100.00
2023-04-27T00:58:26.239Z,100.00
2023-04-27T01:00:52.985Z,100.00
2023-04-27T01:03:20.040Z,100.00
2023-04-27T01:05:46.924Z,100.00
2023-04-27T01:08:13.674Z,100.00
2023-04-27T01:10:41.309Z,100.00
2023-04-27T01:13:08.101Z,100.00
2023-04-27T01:15:34.803Z,100.00
2023-04-27T01:18:02.582Z,100.00
2023-04-27T01:20:30.598Z,100.00
2023-04-27T01:22:57.741Z,100.00
2023-04-27T01:25:25.212Z,100.00
2023-04-27T01:27:51.997Z,100.00
2023-04-27T01:30:18.763Z,100.00
2023-04-27T01:32:45.554Z,100.00
2023-04-27T01:35:12.359Z,100.00
2023-04-27T01:37:39.231Z,100.00
2023-04-27T01:40:06.792Z,100.00
2023-04-27T01:42:33.540Z,100.00
2023-04-27T01:45:00.790Z,100.00
2023-04-27T01:47:27.901Z,100.00
2023-04-27T01:49:54.930Z,100.00
2023-04-27T01:52:21.566Z,100.00
2023-04-27T01:54:48.228Z,100.00
2023-04-27T01:57:15.014Z,100.00
2023-04-27T01:59:41.802Z,100.00
2023-04-27T02:02:08.572Z,100.00
2023-04-27T02:04:36.857Z,100.00
2023-04-27T02:07:03.670Z,100.00
2023-04-27T02:09:30.293Z,100.00
2023-04-27T02:11:56.946Z,100.00
2023-04-27T02:14:23.657Z,100.00
2023-04-27T02:16:50.343Z,100.00
2023-04-27T02:19:17.142Z,100.00
2023-04-27T02:21:43.857Z,100.00
2023-04-27T02:24:10.658Z,100.00
2023-04-27T02:26:37.310Z,100.00
2023-04-27T02:29:04.092Z,100.00
2023-04-27T02:31:31.433Z,100.00
2023-04-27T02:33:58.238Z,100.00
2023-04-27T02:36:25.041Z,100.00
2023-04-27T02:38:51.649Z,100.00
2023-04-27T02:41:18.343Z,100.00
2023-04-27T02:43:45.019Z,100.00
2023-04-27T02:46:11.665Z,100.00
2023-04-27T02:48:38.361Z,100.00
2023-04-27T02:51:05.579Z,100.00
2023-04-27T02:53:32.347Z,100.00
2023-04-27T02:55:59.370Z,100.00
2023-04-27T02:58:26.294Z,100.00
2023-04-27T03:00:57.006Z,100.00
2023-04-27T03:03:24.912Z,100.00
2023-04-27T03:05:51.576Z,100.00
2023-04-27T03:08:18.268Z,100.00
2023-04-27T03:10:44.997Z,100.00
2023-04-27T03:13:11.722Z,100.00
2023-04-27T03:15:38.378Z,100.00
2023-04-27T03:18:05.454Z,100.00
2023-04-27T03:20:32.149Z,100.00
2023-04-27T03:22:58.812Z,100.00
2023-04-27T03:25:25.556Z,100.00
2023-04-27T03:27:52.506Z,100.00
2023-04-27T03:30:19.265Z,100.00
2023-04-27T03:32:47.715Z,100.00
2023-04-27T03:35:15.045Z,100.00
2023-04-27T03:37:41.801Z,100.00
2023-04-27T03:40:09.479Z,100.00
2023-04-27T03:42:36.084Z,100.00
2023-04-27T03:45:03.094Z,100.00
2023-04-27T03:47:29.801Z,100.00
2023-04-27T03:49:56.493Z,100.00
2023-04-27T03:52:23.187Z,100.00
2023-04-27T03:54:49.904Z,100.00
2023-04-27T03:57:16.680Z,100.00
2023-04-27T03:59:43.324Z,100.00
2023-04-27T04:02:11.752Z,100.00
2023-04-27T04:04:38.958Z,100.00
2023-04-27T04:07:06.020Z,100.00
2023-04-27T04:09:32.820Z,100.00
2023-04-27T04:11:59.514Z,100.00
2023-04-27T04:14:27.806Z,100.00
2023-04-27T04:16:54.598Z,100.00
2023-04-27T04:19:22.143Z,100.00
2023-04-27T04:21:49.017Z,100.00
2023-04-27T04:24:16.507Z,100.00
2023-04-27T04:26:43.127Z,100.00
2023-04-27T04:29:11.232Z,100.00
2023-04-27T04:31:38.393Z,100.00
2023-04-27T04:34:05.101Z,100.00
2023-04-27T04:36:32.200Z,100.00
2023-04-27T04:38:59.356Z,100.00
2023-04-27T04:41:26.135Z,100.00
2023-04-27T04:43:52.876Z,100.00
2023-04-27T04:46:20.170Z,100.00
2023-04-27T04:48:47.233Z,100.00
2023-04-27T04:51:14.024Z,100.00
2023-04-27T04:53:40.974Z,100.00
2023-04-27T04:56:12.254Z,100.00
2023-04-27T04:58:39.460Z,100.00
2023-04-27T05:01:06.931Z,100.00
2023-04-27T05:03:34.127Z,100.00
2023-04-27T05:06:00.921Z,100.00
2023-04-27T05:08:27.689Z,100.00
2023-04-27T05:10:54.891Z,100.00
2023-04-27T05:13:21.880Z,100.00
2023-04-27T05:15:48.737Z,100.00
2023-04-27T05:18:15.536Z,100.00
2023-04-27T05:20:42.268Z,100.00
2023-04-27T05:23:08.972Z,100.00
2023-04-27T05:25:42.009Z,100.00
2023-04-27T05:28:09.794Z,100.00
2023-04-27T05:30:37.233Z,100.00
2023-04-27T05:33:04.946Z,100.00
2023-04-27T05:35:32.526Z,100.00
2023-04-27T05:37:59.671Z,100.00
2023-04-27T05:40:26.363Z,100.00
2023-04-27T05:42:53.310Z,100.00
2023-04-27T05:45:20.572Z,100.00
2023-04-27T05:47:47.508Z,100.00
2023-04-27T05:50:14.494Z,100.00
2023-04-27T05:52:41.276Z,100.00
2023-04-27T05:55:08.529Z,100.00
2023-04-27T05:57:35.413Z,100.00
2023-04-27T06:00:07.502Z,100.00
2023-04-27T06:02:34.308Z,100.00
2023-04-27T06:05:01.181Z,100.00
2023-04-27T06:07:27.955Z,100.00
2023-04-27T06:09:54.650Z,100.00
2023-04-27T06:12:21.311Z,100.00
2023-04-27T06:14:48.020Z,100.00
2023-04-27T06:17:14.659Z,100.00
2023-04-27T06:19:41.367Z,100.00
2023-04-27T06:22:08.462Z,100.00
2023-04-27T06:24:36.615Z,100.00
2023-04-27T06:27:03.449Z,100.00
2023-04-27T06:29:30.097Z,100.00
2023-04-27T06:31:56.860Z,100.00
2023-04-27T06:34:23.568Z,100.00
2023-04-27T06:36:50.353Z,100.00
2023-04-27T06:39:17.188Z,100.00
2023-04-27T06:41:43.923Z,100.00
2023-04-27T06:44:11.886Z,100.00
2023-04-27T06:46:38.660Z,100.00
2023-04-27T06:49:05.541Z,100.00
2023-04-27T06:51:32.476Z,100.00
2023-04-27T06:53:59.135Z,100.00
2023-04-27T06:56:26.135Z,100.00
2023-04-27T06:58:52.838Z,100.00
2023-04-27T07:01:19.629Z,100.00
2023-04-27T07:03:46.742Z,100.00
2023-04-27T07:06:13.725Z,100.00
2023-04-27T07:08:41.016Z,100.00
2023-04-27T07:11:07.798Z,100.00
2023-04-27T07:13:34.710Z,100.00
2023-04-27T07:16:01.513Z,100.00
2023-04-27T07:18:28.365Z,100.00
2023-04-27T07:20:55.836Z,100.00
2023-04-27T07:23:22.560Z,100.00
2023-04-27T07:25:49.723Z,100.00
2023-04-27T07:28:16.658Z,100.00
2023-04-27T07:30:43.395Z,100.00
2023-04-27T07:33:10.197Z,100.00
2023-04-27T07:35:37.270Z,100.00
2023-04-27T07:38:04.107Z,100.00
2023-04-27T07:40:32.859Z,100.00
2023-04-27T07:43:00.039Z,100.00
2023-04-27T07:45:32.171Z,100.00
2023-04-27T07:48:02.286Z,100.00
2023-04-27T07:50:30.196Z,100.00
2023-04-27T07:52:57.549Z,100.00
2023-04-27T07:55:25.048Z,100.00
2023-04-27T07:57:56.661Z,100.00
2023-04-27T08:00:25.504Z,100.00
2023-04-27T08:02:55.837Z,100.00
2023-04-27T08:05:23.145Z,100.00
2023-04-27T08:07:52.413Z,100.00
2023-04-27T08:10:19.556Z,100.00
2023-04-27T08:12:46.502Z,100.00
2023-04-27T08:15:13.366Z,100.00
2023-04-27T08:17:43.871Z,100.00
2023-04-27T08:20:14.231Z,100.00
2023-04-27T08:22:41.526Z,100.00
2023-04-27T08:25:09.320Z,100.00
2023-04-27T08:27:43.023Z,100.00
2023-04-27T08:30:11.080Z,100.00
2023-04-27T08:32:38.096Z,100.00
2023-04-27T08:35:06.375Z,100.00
2023-04-27T08:37:33.131Z,96.70
2023-04-27T08:40:00.267Z,90.58
2023-04-27T08:42:27.134Z,100.00
2023-04-27T08:44:53.852Z,100.00
2023-04-27T08:47:31.159Z,98.37
2023-04-27T08:50:06.250Z,94.52
2023-04-27T08:52:33.243Z,95.02
2023-04-27T08:54:59.920Z,97.00
2023-04-27T08:57:26.538Z,96.07
2023-04-27T09:00:01.011Z,90.56
2023-04-27T09:02:29.815Z,95.81
2023-04-27T09:04:57.074Z,100.00
2023-04-27T09:07:24.580Z,99.15
2023-04-27T09:10:03.634Z,100.00
2023-04-27T09:12:30.462Z,94.45
2023-04-27T09:15:02.390Z,92.58
2023-04-27T09:17:30.956Z,98.56
2023-04-27T09:20:13.397Z,100.00
2023-04-27T09:22:47.569Z,95.46
2023-04-27T09:25:31.948Z,92.74
2023-04-27T09:28:00.253Z,94.82
2023-04-27T09:30:28.139Z,98.13
2023-04-27T09:32:56.769Z,91.34
2023-04-27T09:35:26.229Z,100.00
2023-04-27T09:37:53.742Z,85.46
2023-04-27T09:40:26.427Z,82.27
2023-04-27T09:42:53.202Z,97.49
2023-04-27T09:45:20.676Z,94.58
2023-04-27T09:47:47.573Z,87.77
2023-04-27T09:50:15.163Z,91.35
2023-04-27T09:52:42.979Z,81.79
2023-04-27T09:55:13.805Z,83.14
2023-04-27T09:57:55.922Z,86.98
2023-04-27T10:00:34.700Z,100.00
2023-04-27T10:03:33.283Z,83.23
2023-04-27T10:06:21.330Z,75.47
2023-04-27T10:08:50.934Z,70.82
2023-04-27T10:11:19.357Z,77.38
2023-04-27T10:13:56.074Z,85.65
2023-04-27T10:16:22.945Z,73.51
2023-04-27T10:18:55.479Z,74.68
2023-04-27T10:21:22.516Z,79.08
2023-04-27T10:23:51.937Z,80.35
2023-04-27T10:26:27.055Z,81.46
2023-04-27T10:29:20.616Z,78.25
2023-04-27T10:31:50.464Z,72.86
2023-04-27T10:34:20.711Z,70.88
2023-04-27T10:36:48.163Z,69.13
2023-04-27T10:39:39.682Z,73.89
2023-04-27T10:42:12.085Z,74.46
2023-04-27T10:44:39.735Z,77.31
2023-04-27T10:47:19.871Z,77.69
2023-04-27T10:49:46.737Z,76.65
2023-04-27T10:52:13.490Z,74.66
2023-04-27T10:54:46.419Z,77.42
2023-04-27T10:57:13.318Z,93.11
2023-04-27T10:59:51.597Z,82.13
2023-04-27T11:02:26.670Z,84.47
2023-04-27T11:04:53.544Z,81.56
2023-04-27T11:07:28.244Z,87.09
2023-04-27T11:09:55.792Z,88.69
2023-04-27T11:12:22.607Z,85.24
2023-04-27T11:14:49.405Z,89.99
2023-04-27T11:17:16.104Z,90.67
2023-04-27T11:19:49.079Z,91.15
2023-04-27T11:22:19.696Z,93.22
2023-04-27T11:24:50.034Z,85.65
2023-04-27T11:27:18.014Z,81.91
2023-04-27T11:29:44.969Z,83.87
2023-04-27T11:32:32.075Z,93.47
2023-04-27T11:34:59.747Z,87.16
2023-04-27T11:37:27.927Z,88.13
2023-04-27T11:39:55.535Z,93.76
2023-04-27T11:42:24.896Z,95.09
2023-04-27T11:44:56.967Z,94.30
2023-04-27T11:47:25.914Z,100.00
2023-04-27T11:49:54.806Z,92.29
2023-04-27T11:52:23.153Z,89.80
2023-04-27T11:54:50.876Z,87.78
2023-04-27T11:57:17.649Z,85.49
2023-04-27T11:59:44.658Z,91.97
2023-04-27T12:02:12.082Z,94.25
2023-04-27T12:04:38.902Z,90.39
2023-04-27T12:07:05.769Z,85.75
2023-04-27T12:09:32.516Z,84.88
2023-04-27T12:11:59.271Z,83.60
2023-04-27T12:14:26.092Z,90.10
2023-04-27T12:16:52.970Z,86.98
2023-04-27T12:19:19.833Z,89.86
2023-04-27T12:21:46.825Z,78.44
2023-04-27T12:24:14.047Z,83.88
2023-04-27T12:26:41.104Z,84.06
2023-04-27T12:29:07.810Z,79.80
2023-04-27T12:31:34.693Z,77.40
2023-04-27T12:34:01.844Z,85.36
2023-04-27T12:36:28.899Z,81.47
2023-04-27T12:38:59.718Z,79.60
2023-04-27T12:41:26.521Z,84.81
2023-04-27T12:43:53.215Z,89.60
2023-04-27T12:46:19.957Z,84.53
2023-04-27T12:48:46.793Z,76.99
2023-04-27T12:51:13.639Z,75.92
2023-04-27T12:53:40.359Z,82.91
2023-04-27T12:56:07.208Z,75.45
2023-04-27T12:58:33.926Z,74.25
2023-04-27T13:01:01.238Z,75.97
2023-04-27T13:03:28.020Z,79.72
2023-04-27T13:05:54.903Z,79.13
2023-04-27T13:08:21.782Z,77.79
2023-04-27T13:10:48.675Z,83.65
2023-04-27T13:13:15.461Z,88.63
2023-04-27T13:15:42.280Z,87.62
2023-04-27T13:18:09.141Z,76.86
2023-04-27T13:20:36.528Z,69.49
2023-04-27T13:23:05.247Z,65.97
2023-04-27T13:25:31.921Z,66.66
2023-04-27T13:27:58.610Z,68.65
2023-04-27T13:30:25.333Z,68.75
2023-04-27T13:32:52.822Z,68.38
2023-04-27T13:35:20.189Z,67.70
2023-04-27T13:37:48.189Z,65.52
2023-04-27T13:40:15.177Z,67.22
2023-04-27T13:42:41.914Z,68.13
2023-04-27T13:45:09.322Z,69.45
2023-04-27T13:47:39.188Z,67.34
2023-04-27T13:50:08.023Z,65.61
2023-04-27T13:52:36.296Z,62.73
2023-04-27T13:55:08.628Z,60.20
2023-04-27T13:57:35.477Z,61.08
2023-04-27T14:00:02.621Z,59.24
2023-04-27T14:02:30.540Z,57.71
2023-04-27T14:04:57.571Z,59.40
2023-04-27T14:07:24.625Z,60.85
2023-04-27T14:09:51.290Z,61.36
2023-04-27T14:12:18.063Z,63.49
2023-04-27T14:14:44.889Z,65.84
2023-04-27T14:17:11.568Z,67.01
2023-04-27T14:19:38.239Z,66.91
2023-04-27T14:22:06.613Z,69.54
2023-04-27T14:24:33.277Z,73.49
2023-04-27T14:27:00.024Z,76.15
2023-04-27T14:29:26.811Z,76.26
2023-04-27T14:31:53.546Z,75.42
2023-04-27T14:34:21.589Z,76.50
2023-04-27T14:36:48.681Z,75.36
2023-04-27T14:39:16.354Z,76.96
2023-04-27T14:41:43.357Z,74.80
2023-04-27T14:44:10.085Z,78.98
2023-04-27T14:46:37.255Z,77.98
2023-04-27T14:49:04.086Z,76.08
2023-04-27T14:51:33.384Z,79.04
2023-04-27T14:54:00.319Z,81.90
2023-04-27T14:56:27.075Z,81.56
2023-04-27T14:58:55.481Z,82.58
2023-04-27T15:01:22.419Z,82.62
2023-04-27T15:03:51.311Z,79.86
2023-04-27T15:06:21.644Z,79.78
2023-04-27T15:08:49.150Z,81.61
2023-04-27T15:11:16.110Z,79.90
2023-04-27T15:13:42.900Z,77.18
2023-04-27T15:16:09.627Z,79.60
2023-04-27T15:18:36.345Z,81.63
2023-04-27T15:21:03.076Z,81.70
2023-04-27T15:23:29.891Z,85.38
2023-04-27T15:25:58.497Z,85.66
2023-04-27T15:28:25.584Z,87.45
2023-04-27T15:30:52.830Z,86.54
2023-04-27T15:33:20.172Z,85.29
2023-04-27T15:35:47.075Z,87.94
2023-04-27T15:38:15.407Z,88.12
2023-04-27T15:40:42.368Z,88.35
2023-04-27T15:43:09.651Z,90.20
2023-04-27T15:45:36.815Z,92.59
2023-04-27T15:48:04.060Z,95.15
2023-04-27T15:50:30.975Z,91.58
2023-04-27T15:52:57.912Z,85.93
2023-04-27T15:55:24.649Z,83.61
2023-04-27T15:57:51.596Z,82.95
2023-04-27T16:00:22.370Z,80.56
2023-04-27T16:02:49.487Z,81.91
2023-04-27T16:05:17.398Z,84.96
2023-04-27T16:07:45.811Z,84.26
2023-04-27T16:10:13.112Z,82.79
2023-04-27T16:12:39.918Z,81.23
2023-04-27T16:15:10.038Z,86.68
2023-04-27T16:17:38.318Z,84.91
2023-04-27T16:20:09.723Z,86.06
2023-04-27T16:22:38.194Z,88.75
2023-04-27T16:25:10.831Z,87.86
2023-04-27T16:27:38.779Z,87.28
2023-04-27T16:30:06.946Z,81.44
2023-04-27T16:32:35.588Z,80.83
2023-04-27T16:35:03.272Z,80.42
2023-04-27T16:37:30.333Z,78.89
2023-04-27T16:40:01.735Z,77.35
2023-04-27T16:42:28.744Z,77.99
2023-04-27T16:44:55.873Z,79.82
2023-04-27T16:47:23.098Z,82.69
2023-04-27T16:49:49.820Z,81.75
2023-04-27T16:52:17.196Z,83.79
2023-04-27T16:54:43.990Z,87.17
2023-04-27T16:57:10.901Z,88.69
2023-04-27T16:59:37.696Z,93.64
2023-04-27T17:02:17.024Z,100.00
2023-04-27T17:04:51.515Z,100.00
2023-04-27T17:07:18.772Z,100.00
2023-04-27T17:09:45.568Z,100.00
2023-04-27T17:12:14.031Z,100.00
2023-04-27T17:14:40.952Z,100.00
2023-04-27T17:17:07.858Z,100.00
2023-04-27T17:19:34.654Z,100.00
2023-04-27T17:22:01.499Z,100.00
2023-04-27T17:24:28.344Z,100.00
2023-04-27T17:26:55.144Z,100.00
2023-04-27T17:29:22.245Z,100.00
2023-04-27T17:31:50.346Z,100.00
2023-04-27T17:34:17.300Z,100.00
2023-04-27T17:36:44.179Z,100.00
2023-04-27T17:39:12.909Z,100.00
2023-04-27T17:41:40.140Z,100.00
2023-04-27T17:44:06.984Z,100.00
2023-04-27T17:46:33.725Z,100.00
2023-04-27T17:49:00.615Z,100.00
2023-04-27T17:51:27.499Z,100.00
2023-04-27T17:53:54.204Z,100.00
2023-04-27T17:56:20.843Z,100.00
2023-04-27T17:58:47.703Z,100.00
2023-04-27T18:01:14.505Z,100.00
2023-04-27T18:03:42.337Z,100.00
2023-04-27T18:06:09.491Z,100.00
2023-04-27T18:08:36.204Z,100.00
2023-04-27T18:11:02.984Z,100.00
2023-04-27T18:13:31.962Z,100.00
2023-04-27T18:15:59.090Z,100.00
2023-04-27T18:18:26.954Z,100.00
2023-04-27T18:20:53.880Z,100.00
2023-04-27T18:23:21.118Z,100.00
2023-04-27T18:25:47.925Z,100.00
2023-04-27T18:28:14.653Z,100.00
2023-04-27T18:30:41.927Z,100.00
2023-04-27T18:33:08.955Z,100.00
2023-04-27T18:35:36.195Z,100.00
2023-04-27T18:38:03.712Z,100.00
2023-04-27T18:40:31.669Z,100.00
2023-04-27T18:42:58.697Z,100.00
2023-04-27T18:45:25.516Z,100.00
2023-04-27T18:47:52.397Z,100.00
2023-04-27T18:50:19.460Z,100.00
2023-04-27T18:52:47.023Z,100.00
2023-04-27T18:55:17.007Z,100.00
2023-04-27T18:57:44.038Z,100.00
2023-04-27T19:00:11.868Z,100.00
2023-04-27T19:02:39.195Z,100.00
2023-04-27T19:05:13.052Z,100.00
2023-04-27T19:07:40.384Z,100.00
2023-04-27T19:10:07.847Z,100.00
2023-04-27T19:12:34.497Z,100.00
2023-04-27T19:15:01.127Z,100.00
2023-04-27T19:17:28.087Z,100.00
2023-04-27T19:19:55.028Z,100.00
2023-04-27T19:22:21.728Z,100.00
2023-04-27T19:24:48.567Z,100.00
2023-04-27T19:27:15.290Z,100.00
2023-04-27T19:29:53.449Z,100.00
2023-04-27T19:32:20.962Z,100.00
2023-04-27T19:34:48.294Z,100.00
2023-04-27T19:37:15.033Z,100.00
2023-04-27T19:39:41.878Z,100.00
2023-04-27T19:42:08.690Z,100.00
2023-04-27T19:44:36.010Z,100.00
2023-04-27T19:47:02.790Z,100.00
2023-04-27T19:49:33.157Z,100.00
2023-04-27T19:52:00.858Z,100.00
2023-04-27T19:54:27.651Z,100.00
2023-04-27T19:56:55.124Z,100.00
2023-04-27T19:59:22.222Z,100.00
2023-04-27T20:01:49.104Z,100.00
2023-04-27T20:04:18.057Z,100.00
2023-04-27T20:06:45.327Z,100.00
2023-04-27T20:09:12.252Z,100.00
2023-04-27T20:11:39.560Z,100.00
2023-04-27T20:14:06.561Z,100.00
2023-04-27T20:16:33.280Z,100.00
2023-04-27T20:18:59.879Z,100.00
2023-04-27T20:21:28.155Z,100.00
2023-04-27T20:23:55.060Z,100.00
2023-04-27T20:26:22.576Z,100.00
2023-04-27T20:28:49.399Z,100.00
2023-04-27T20:31:16.137Z,100.00
2023-04-27T20:33:42.910Z,100.00
2023-04-27T20:36:17.348Z,100.00
2023-04-27T20:38:45.787Z,100.00
2023-04-27T20:41:12.525Z,100.00
2023-04-27T20:43:40.145Z,100.00
2023-04-27T20:46:08.017Z,100.00
2023-04-27T20:48:34.860Z,100.00
2023-04-27T20:51:02.203Z,100.00
2023-04-27T20:53:29.208Z,100.00
2023-04-27T20:55:57.167Z,100.00
2023-04-27T20:58:24.269Z,100.00
2023-04-27T21:00:51.592Z,100.00
2023-04-27T21:03:18.596Z,100.00
2023-04-27T21:05:46.032Z,100.00
2023-04-27T21:08:13.040Z,100.00
2023-04-27T21:10:39.961Z,100.00
2023-04-27T21:13:07.145Z,100.00
2023-04-27T21:15:33.838Z,100.00
2023-04-27T21:18:01.104Z,100.00
2023-04-27T21:20:27.811Z,100.00
2023-04-27T21:22:54.751Z,100.00
2023-04-27T21:25:23.642Z,100.00
2023-04-27T21:27:50.794Z,100.00
2023-04-27T21:30:17.818Z,100.00
2023-04-27T21:32:44.714Z,100.00
2023-04-27T21:35:11.505Z,100.00
2023-04-27T21:37:38.215Z,100.00
2023-04-27T21:40:06.325Z,100.00
2023-04-27T21:42:33.221Z,100.00
2023-04-27T21:45:00.069Z,100.00
2023-04-27T21:47:27.012Z,100.00
2023-04-27T21:49:53.892Z,100.00
2023-04-27T21:52:21.948Z,100.00
2023-04-27T21:54:48.936Z,100.00
2023-04-27T21:57:16.923Z,100.00
2023-04-27T21:59:44.861Z,100.00
2023-04-27T22:02:11.879Z,100.00
2023-04-27T22:04:39.107Z,100.00
2023-04-27T22:07:08.126Z,100.00
2023-04-27T22:09:35.944Z,100.00
2023-04-27T22:12:05.923Z,100.00
2023-04-27T22:14:32.733Z,100.00
2023-04-27T22:17:01.046Z,100.00
2023-04-27T22:19:28.768Z,100.00
2023-04-27T22:21:55.811Z,100.00
2023-04-27T22:24:22.724Z,100.00
2023-04-27T22:26:49.619Z,100.00
2023-04-27T22:29:16.897Z,100.00
2023-04-27T22:31:44.736Z,100.00
2023-04-27T22:34:13.108Z,100.00
2023-04-27T22:36:40.161Z,100.00
2023-04-27T22:39:07.362Z,100.00
2023-04-27T22:41:34.117Z,100.00
2023-04-27T22:44:01.015Z,100.00
2023-04-27T22:46:27.823Z,100.00
2023-04-27T22:48:54.671Z,100.00
2023-04-27T22:51:21.861Z,100.00
2023-04-27T22:53:49.232Z,100.00
2023-04-27T22:56:15.977Z,100.00
2023-04-27T22:58:42.944Z,100.00
2023-04-27T23:01:09.726Z,100.00
2023-04-27T23:03:36.960Z,100.00
2023-04-27T23:06:05.219Z,100.00
2023-04-27T23:08:31.969Z,100.00
2023-04-27T23:10:58.884Z,100.00
2023-04-27T23:13:29.114Z,100.00
2023-04-27T23:15:56.395Z,100.00
2023-04-27T23:18:23.105Z,100.00
2023-04-27T23:20:56.999Z,100.00
2023-04-27T23:23:24.135Z,100.00
2023-04-27T23:25:50.766Z,100.00
2023-04-27T23:28:17.677Z,100.00
2023-04-27T23:30:51.599Z,100.00
2023-04-27T23:33:19.010Z,100.00
2023-04-27T23:35:45.918Z,100.00
2023-04-27T23:38:12.771Z,100.00
2023-04-27T23:40:39.612Z,100.00
2023-04-27T23:43:06.345Z,100.00
2023-04-27T23:45:33.098Z,100.00
2023-04-27T23:48:00.263Z,100.00
2023-04-27T23:50:27.092Z,100.00
2023-04-27T23:52:53.858Z,100.00
2023-04-27T23:55:20.862Z,100.00
2023-04-27T23:57:47.962Z,100.00
